Time;durP1;ratioP1;P1;durP2;ratioP2;P2;SDS_P1;SDS_P2;PMS_P1;PMS_P2;Temp;Humidity;BMP_temperature;BMP_pressure;BME280_temperature;BME280_humidity;BME280_pressure;Samples;Min_cycle;Max_cycle;Signal;HPM_P1;HPM_P2
2023/10/30 00:00:30;;;;;;;2.38;1.40;;;28.90;44.60;;;;;;5028050;28;20216;-79
2023/10/30 00:03:05;;;;;;;2.35;1.20;;;29.00;44.60;;;;;;5035828;28;20276;-79
2023/10/30 00:05:37;;;;;;;2.83;1.50;;;29.00;45.30;;;;;;5016511;28;20209;-79
2023/10/30 00:08:08;;;;;;;1.88;1.20;;;29.10;45.20;;;;;;5016296;28;20202;-78
2023/10/30 00:10:41;;;;;;;1.65;1.13;;;29.20;45.40;;;;;;5024828;28;20185;-79
2023/10/30 00:13:16;;;;;;;1.63;1.00;;;29.30;44.80;;;;;;5032069;28;20210;-79
2023/10/30 00:15:48;;;;;;;2.35;1.20;;;29.40;44.90;;;;;;5031713;28;20197;-78
2023/10/30 00:18:21;;;;;;;1.77;1.17;;;29.40;45.10;;;;;;5038758;28;20217;-78
2023/10/30 00:20:53;;;;;;;3.67;1.20;;;29.50;45.80;;;;;;5019344;28;20234;-78
2023/10/30 00:23:26;;;;;;;1.42;1.23;;;29.50;45.00;;;;;;5026855;28;20202;-77
2023/10/30 00:26:08;;;;;;;2.28;1.30;;;29.60;45.30;;;;;;5016648;28;20206;-78
2023/10/30 00:28:42;;;;;;;1.10;1.00;;;29.60;45.10;;;;;;5011469;28;20269;-80
2023/10/30 00:31:12;;;;;;;2.67;1.30;;;29.70;44.10;;;;;;5004539;28;20226;-79
2023/10/30 00:34:09;;;;;;;2.08;1.10;;;29.90;44.00;;;;;;4999592;28;20649;-79
2023/10/30 00:36:54;;;;;;;2.55;1.20;;;30.00;42.80;;;;;;4998262;28;20565;-79
2023/10/30 00:39:27;;;;;;;2.75;1.58;;;30.20;43.40;;;;;;4991812;28;20664;-78
2023/10/30 00:41:58;;;;;;;4.75;1.48;;;30.20;42.60;;;;;;4998921;28;20261;-80
2023/10/30 00:44:38;;;;;;;2.28;1.17;;;30.30;41.60;;;;;;5003664;28;20642;-79
2023/10/30 00:47:13;;;;;;;2.75;1.38;;;30.40;40.90;;;;;;5010290;28;20438;-78
2023/10/30 00:49:48;;;;;;;3.88;1.45;;;30.50;39.90;;;;;;5007007;28;20214;-78
2023/10/30 00:52:19;;;;;;;1.58;1.20;;;30.50;41.10;;;;;;5012720;28;20199;-78
2023/10/30 00:58:08;;;;;;;2.25;1.30;;;30.60;39.20;;;;;;5013014;28;20328;-77
2023/10/30 01:01:00;;;;;;;1.73;1.40;;;30.70;38.80;;;;;;5006846;28;20235;-77
2023/10/30 01:03:31;;;;;;;3.20;1.10;;;30.80;39.20;;;;;;5015919;28;20194;-77
2023/10/30 01:06:15;;;;;;;3.17;1.15;;;30.90;36.80;;;;;;5017384;28;20492;-78
2023/10/30 01:08:49;;;;;;;1.60;1.27;;;31.00;37.20;;;;;;4999108;28;20664;-77
2023/10/30 01:11:24;;;;;;;4.28;1.30;;;31.00;36.80;;;;;;4995246;28;20256;-77
2023/10/30 01:13:55;;;;;;;1.60;1.20;;;30.90;36.50;;;;;;4997881;28;20203;-76
2023/10/30 01:16:29;;;;;;;1.73;1.20;;;30.80;36.30;;;;;;4995318;28;20376;-77
2023/10/30 01:19:00;;;;;;;2.53;1.30;;;30.80;36.60;;;;;;5007974;28;20230;-77
2023/10/30 01:21:31;;;;;;;3.17;1.40;;;31.00;37.20;;;;;;5023826;28;20221;-77
2023/10/30 01:24:01;;;;;;;2.45;1.50;;;31.10;36.80;;;;;;5030266;28;20686;-76
2023/10/30 01:26:43;;;;;;;1.90;1.20;;;31.10;36.50;;;;;;5033469;28;20260;-77
2023/10/30 01:29:16;;;;;;;1.48;1.38;;;31.20;36.60;;;;;;5034427;28;20304;-77
2023/10/30 01:31:50;;;;;;;1.77;1.50;;;31.30;37.20;;;;;;5035578;28;20201;-77
2023/10/30 01:34:23;;;;;;;3.00;1.38;;;31.40;37.00;;;;;;5022232;28;20204;-77
2023/10/30 01:36:55;;;;;;;2.88;1.70;;;31.60;37.40;;;;;;5031900;28;20639;-78
2023/10/30 01:39:26;;;;;;;3.15;1.58;;;31.70;37.00;;;;;;5022777;28;20594;-78
2023/10/30 01:41:59;;;;;;;3.50;1.40;;;31.90;36.60;;;;;;5034542;28;20266;-77
2023/10/30 01:44:35;;;;;;;3.10;1.42;;;31.90;35.10;;;;;;5040221;28;20225;-79
2023/10/30 01:47:08;;;;;;;1.90;1.40;;;32.00;34.70;;;;;;5043269;28;20659;-78
2023/10/30 01:49:39;;;;;;;5.93;1.42;;;32.10;34.70;;;;;;5019032;28;20684;-76
2023/10/30 01:52:13;;;;;;;3.13;1.30;;;32.10;34.60;;;;;;5031194;28;20607;-77
2023/10/30 01:54:46;;;;;;;1.52;1.23;;;32.10;33.60;;;;;;5026637;28;20189;-76
2023/10/30 01:57:30;;;;;;;4.72;1.80;;;32.20;34.90;;;;;;5034365;28;20193;-76
2023/10/30 02:00:03;;;;;;;3.50;1.50;;;32.30;34.00;;;;;;5034127;28;20265;-76
2023/10/30 02:02:45;;;;;;;2.10;1.55;;;32.50;34.20;;;;;;5036006;28;20225;-77
2023/10/30 02:05:45;;;;;;;4.57;1.50;;;32.50;33.60;;;;;;5033747;28;20216;-77
2023/10/30 02:08:17;;;;;;;6.70;2.10;;;32.60;33.30;;;;;;5033990;28;20193;-77
2023/10/30 02:10:48;;;;;;;7.68;1.85;;;32.40;44.10;;;;;;5032400;28;20248;-78
2023/10/30 02:13:20;;;;;;;7.28;2.05;;;32.40;49.00;;;;;;5034523;28;20185;-76
2023/10/30 02:15:55;;;;;;;7.20;2.22;;;32.30;50.80;;;;;;5032462;28;20219;-77
2023/10/30 02:18:41;;;;;;;5.78;2.10;;;32.10;51.40;;;;;;5029096;28;20229;-77
2023/10/30 02:21:13;;;;;;;7.22;1.80;;;31.90;51.60;;;;;;5045994;28;20284;-78
2023/10/30 02:26:43;;;;;;;7.90;2.25;;;31.60;53.40;;;;;;5034270;28;20210;-78
2023/10/30 02:29:14;;;;;;;6.35;2.10;;;31.60;54.40;;;;;;5037174;28;20193;-78
2023/10/30 02:32:29;;;;;;;7.35;2.25;;;31.60;53.70;;;;;;5035254;28;20232;-78
2023/10/30 02:35:03;;;;;;;8.50;1.98;;;31.60;54.40;;;;;;5028974;28;20672;-77
2023/10/30 02:37:33;;;;;;;7.72;1.92;;;31.60;54.10;;;;;;5027067;28;20287;-77
2023/10/30 02:40:14;;;;;;;6.53;2.00;;;31.40;53.70;;;;;;5028329;28;20640;-76
2023/10/30 02:42:49;;;;;;;7.28;2.30;;;31.30;55.10;;;;;;5022026;28;20201;-77
2023/10/30 02:45:21;;;;;;;8.52;1.95;;;31.40;55.70;;;;;;5036289;28;20239;-77
2023/10/30 02:47:52;;;;;;;6.25;2.08;;;31.50;55.40;;;;;;5042677;28;20205;-78
2023/10/30 02:50:22;;;;;;;12.68;2.30;;;31.50;57.20;;;;;;5033565;28;20197;-77
2023/10/30 02:52:55;;;;;;;6.10;1.88;;;31.40;57.80;;;;;;5043297;28;20196;-78
2023/10/30 02:55:27;;;;;;;4.97;1.90;;;31.30;58.60;;;;;;5032628;28;20244;-77
2023/10/30 02:58:00;;;;;;;6.75;2.00;;;31.20;57.60;;;;;;5043050;28;20228;-78
2023/10/30 03:00:31;;;;;;;9.13;2.10;;;31.30;57.80;;;;;;5037596;28;20208;-78
2023/10/30 03:03:02;;;;;;;9.15;2.30;;;31.40;57.20;;;;;;5030550;28;20200;-77
2023/10/30 03:05:34;;;;;;;9.60;2.03;;;31.50;56.40;;;;;;5042195;28;20595;-77
2023/10/30 03:08:05;;;;;;;6.13;2.17;;;31.60;56.00;;;;;;5047643;28;20194;-79
2023/10/30 03:10:45;;;;;;;5.68;1.98;;;31.70;55.10;;;;;;5046222;28;20207;-77
2023/10/30 03:13:20;;;;;;;6.50;2.47;;;31.80;54.30;;;;;;5034667;28;20233;-78
2023/10/30 03:15:52;;;;;;;6.65;1.98;;;31.70;56.80;;;;;;5028490;28;20206;-76
2023/10/30 03:18:24;;;;;;;8.82;2.30;;;31.70;55.10;;;;;;5024434;28;20244;-78
2023/10/30 03:20:56;;;;;;;7.57;2.35;;;31.60;57.30;;;;;;5035434;28;20264;-76
2023/10/30 03:23:27;;;;;;;6.65;2.30;;;31.60;57.90;;;;;;5044593;28;20204;-78
2023/10/30 03:26:00;;;;;;;5.78;2.65;;;31.70;55.60;;;;;;5044482;28;20201;-76
2023/10/30 03:28:35;;;;;;;6.05;2.35;;;31.80;54.50;;;;;;5036376;28;20574;-78
2023/10/30 03:31:11;;;;;;;6.75;2.60;;;32.00;53.60;;;;;;5040339;28;20549;-77
2023/10/30 03:33:43;;;;;;;7.35;2.55;;;32.30;53.50;;;;;;5044651;28;20219;-77
2023/10/30 03:36:20;;;;;;;8.32;2.63;;;32.00;51.90;;;;;;5052507;28;20521;-77
2023/10/30 03:38:52;;;;;;;8.80;3.22;;;32.00;51.60;;;;;;5032737;28;20232;-78
2023/10/30 03:41:24;;;;;;;8.65;2.90;;;32.30;51.40;;;;;;5038005;28;20536;-76
2023/10/30 03:44:06;;;;;;;8.30;3.25;;;32.50;51.10;;;;;;5039969;28;20201;-79
2023/10/30 03:46:39;;;;;;;8.18;2.35;;;32.60;49.80;;;;;;5041077;28;20203;-77
2023/10/30 03:49:11;;;;;;;6.45;2.45;;;32.80;50.00;;;;;;5037414;28;20193;-78
2023/10/30 03:51:48;;;;;;;6.82;2.22;;;32.70;50.70;;;;;;5033438;28;20201;-78
2023/10/30 03:54:24;;;;;;;5.70;2.30;;;32.70;51.20;;;;;;5039876;28;20648;-79
2023/10/30 03:57:06;;;;;;;7.85;2.50;;;32.30;51.60;;;;;;5054034;28;20684;-79
2023/10/30 03:59:44;;;;;;;6.72;2.40;;;31.80;52.50;;;;;;5035942;28;20277;-78
2023/10/30 04:02:17;;;;;;;9.98;2.63;;;31.30;54.90;;;;;;5038624;28;20188;-78
2023/10/30 04:05:30;;;;;;;6.00;2.42;;;30.70;56.60;;;;;;5037162;28;20256;-79
2023/10/30 04:08:27;;;;;;;9.98;2.40;;;30.30;58.90;;;;;;5036383;28;20197;-78
2023/10/30 04:11:01;;;;;;;9.93;2.30;;;30.10;60.80;;;;;;5037932;28;20205;-78
2023/10/30 04:25:06;;;;;;;9.15;2.72;;;29.70;57.10;;;;;;5005898;28;20201;-79
2023/10/30 04:39:23;;;;;;;10.13;2.30;;;29.00;66.30;;;;;;5030978;28;20240;-77
2023/10/30 04:55:53;;;;;;;8.48;2.17;;;29.00;67.70;;;;;;5015144;28;20199;-77
2023/10/30 04:58:24;;;;;;;9.93;2.67;;;29.20;68.50;;;;;;5011228;28;20261;-77
2023/10/30 05:00:57;;;;;;;7.07;2.53;;;29.20;68.10;;;;;;5011723;28;20277;-76
2023/10/30 05:03:33;;;;;;;8.52;2.53;;;29.60;66.50;;;;;;5012996;28;21104;-78
2023/10/30 05:06:30;;;;;;;8.88;2.50;;;30.20;65.00;;;;;;5019641;28;20288;-77
2023/10/30 05:09:28;;;;;;;9.65;2.33;;;30.70;63.30;;;;;;5039358;28;20216;-78
2023/10/30 05:12:00;;;;;;;8.07;2.28;;;31.30;61.20;;;;;;5021858;28;20652;-78
2023/10/30 05:14:44;;;;;;;8.30;2.30;;;31.60;59.50;;;;;;5018893;28;20229;-78
2023/10/30 05:17:25;;;;;;;5.85;2.60;;;31.80;59.60;;;;;;5027796;28;20201;-79
2023/10/30 05:19:58;;;;;;;12.05;2.85;;;32.20;58.30;;;;;;5021195;28;20228;-79
2023/10/30 05:22:32;;;;;;;7.85;2.45;;;32.30;58.00;;;;;;5030723;28;20419;-79
2023/10/30 05:25:06;;;;;;;9.35;2.42;;;32.20;56.40;;;;;;5035537;28;20560;-78
2023/10/30 05:27:39;;;;;;;12.55;2.67;;;32.10;56.20;;;;;;5034280;28;20289;-76
2023/10/30 05:30:11;;;;;;;8.90;2.20;;;32.40;56.00;;;;;;5032732;28;20216;-77
2023/10/30 05:32:43;;;;;;;7.15;2.25;;;32.90;55.30;;;;;;5033481;28;20567;-79
2023/10/30 05:35:14;;;;;;;7.20;2.25;;;32.90;55.20;;;;;;5034308;28;20197;-78
2023/10/30 05:37:45;;;;;;;6.90;1.90;;;32.50;56.00;;;;;;5032621;28;20665;-78
2023/10/30 05:40:18;;;;;;;10.80;2.45;;;32.50;56.00;;;;;;5041169;28;20226;-77
2023/10/30 05:42:49;;;;;;;9.38;1.90;;;32.10;56.10;;;;;;5023642;28;20210;-78
2023/10/30 05:45:21;;;;;;;10.23;2.60;;;31.30;57.60;;;;;;5036340;28;20196;-79
2023/10/30 05:47:55;;;;;;;11.10;2.35;;;30.80;58.60;;;;;;5028793;28;20210;-79
2023/10/30 05:50:30;;;;;;;8.80;2.40;;;30.40;59.50;;;;;;5025224;28;20604;-80
2023/10/30 05:53:02;;;;;;;7.93;2.35;;;30.20;60.30;;;;;;5030392;28;20232;-79
2023/10/30 05:55:50;;;;;;;8.18;2.17;;;30.00;60.70;;;;;;5026680;28;20331;-79
2023/10/30 05:58:34;;;;;;;10.65;2.33;;;29.80;61.20;;;;;;5032405;28;20190;-79
2023/10/30 06:01:12;;;;;;;9.80;2.67;;;29.70;60.90;;;;;;5030285;28;20196;-77
2023/10/30 06:03:43;;;;;;;9.23;2.35;;;29.20;62.50;;;;;;5025620;28;20201;-77
2023/10/30 06:06:16;;;;;;;10.60;2.22;;;29.20;62.70;;;;;;5027257;28;20228;-78
2023/10/30 06:08:48;;;;;;;7.97;2.22;;;29.00;63.50;;;;;;5028034;28;20201;-76
2023/10/30 06:11:21;;;;;;;8.65;2.33;;;28.90;64.40;;;;;;5029441;28;20261;-77
2023/10/30 06:13:53;;;;;;;10.07;2.30;;;28.80;64.90;;;;;;5027700;28;20249;-77
2023/10/30 06:16:24;;;;;;;7.30;2.28;;;28.60;65.40;;;;;;5026748;28;20209;-76
2023/10/30 06:18:56;;;;;;;23.55;3.15;;;28.40;66.00;;;;;;5029835;28;20237;-77
2023/10/30 06:21:27;;;;;;;8.93;2.40;;;28.30;67.10;;;;;;5028987;28;20240;-77
2023/10/30 06:23:58;;;;;;;8.23;2.47;;;28.20;66.90;;;;;;5027047;28;20205;-76
2023/10/30 06:26:35;;;;;;;7.00;2.13;;;28.20;67.40;;;;;;5031945;28;20380;-77
2023/10/30 06:29:08;;;;;;;8.60;2.30;;;28.10;68.20;;;;;;5039503;28;20212;-78
2023/10/30 06:31:41;;;;;;;8.95;2.35;;;28.10;68.50;;;;;;5021912;28;20722;-76
2023/10/30 06:34:13;;;;;;;7.57;2.55;;;28.00;68.50;;;;;;5013330;28;20708;-77
2023/10/30 06:36:45;;;;;;;6.88;2.40;;;28.00;70.00;;;;;;5022436;28;20689;-77
2023/10/30 06:39:20;;;;;;;15.13;3.30;;;27.90;71.90;;;;;;5035942;28;20311;-77
2023/10/30 06:41:55;;;;;;;7.15;2.78;;;27.80;73.90;;;;;;5033973;28;20204;-77
2023/10/30 06:44:30;;;;;;;8.55;2.88;;;27.70;75.30;;;;;;5035452;28;20197;-77
2023/10/30 06:47:07;;;;;;;8.85;2.55;;;27.60;76.40;;;;;;5032019;28;20652;-78
2023/10/30 06:49:40;;;;;;;11.40;2.90;;;27.50;77.60;;;;;;5027537;28;20273;-76
2023/10/30 06:52:14;;;;;;;9.73;2.90;;;27.40;79.40;;;;;;5026401;28;20338;-76
2023/10/30 06:54:45;;;;;;;9.30;2.90;;;27.30;80.80;;;;;;5023672;28;20277;-78
2023/10/30 06:57:22;;;;;;;9.77;3.08;;;27.20;83.00;;;;;;5024841;28;20655;-77
2023/10/30 06:59:58;;;;;;;8.02;2.78;;;27.10;84.40;;;;;;5028470;28;20225;-77
2023/10/30 07:02:32;;;;;;;10.90;3.05;;;27.10;86.80;;;;;;5027188;28;20208;-77
2023/10/30 07:05:06;;;;;;;9.95;2.85;;;27.10;87.30;;;;;;5026095;28;20275;-77
2023/10/30 07:07:37;;;;;;;11.10;2.97;;;27.60;87.20;;;;;;5025639;28;20198;-77
2023/10/30 07:10:11;;;;;;;10.05;2.90;;;27.70;86.30;;;;;;5032443;28;20273;-77
2023/10/30 07:12:45;;;;;;;8.48;2.80;;;27.70;87.00;;;;;;5030361;28;20205;-78
2023/10/30 07:15:16;;;;;;;8.75;2.70;;;27.90;87.50;;;;;;5029561;28;20284;-76
2023/10/30 07:17:50;;;;;;;10.73;3.20;;;28.00;87.00;;;;;;5027928;28;20220;-77
2023/10/30 07:20:22;;;;;;;11.05;2.75;;;28.30;85.70;;;;;;5032222;28;20308;-76
2023/10/30 07:22:54;;;;;;;9.55;2.70;;;28.30;85.50;;;;;;5009618;28;20239;-77
2023/10/30 07:25:25;;;;;;;9.88;2.80;;;28.60;84.50;;;;;;4996603;28;20207;-78
2023/10/30 07:28:00;;;;;;;8.65;2.65;;;28.60;83.70;;;;;;5004237;28;20316;-78
2023/10/30 07:30:31;;;;;;;9.35;4.05;;;28.70;82.90;;;;;;5005128;28;20193;-76
2023/10/30 07:33:02;;;;;;;13.07;4.15;;;28.90;80.40;;;;;;5023357;28;20205;-77
2023/10/30 07:35:38;;;;;;;8.80;3.00;;;29.10;80.10;;;;;;5012218;28;20206;-78
2023/10/30 07:38:14;;;;;;;6.82;3.10;;;29.20;80.70;;;;;;5005974;28;20209;-76
2023/10/30 07:40:45;;;;;;;7.88;3.40;;;29.20;56.80;;;;;;5011230;28;20349;-77
2023/10/30 07:43:18;;;;;;;6.10;2.90;;;29.60;45.70;;;;;;5016381;28;20189;-77
2023/10/30 07:45:50;;;;;;;7.95;3.10;;;30.00;39.40;;;;;;5015236;28;20686;-74
2023/10/30 07:48:20;;;;;;;4.82;2.70;;;30.50;39.20;;;;;;5003192;28;20233;-71
2023/10/30 07:50:52;;;;;;;5.57;2.60;;;30.60;38.30;;;;;;4992467;28;20206;-76
2023/10/30 07:53:24;;;;;;;7.97;2.97;;;30.70;37.00;;;;;;5004782;28;20665;-75
2023/10/30 07:55:55;;;;;;;7.95;3.00;;;30.80;36.20;;;;;;5011139;28;20208;-76
2023/10/30 07:58:28;;;;;;;8.60;2.90;;;30.90;35.50;;;;;;5010593;28;20202;-76
2023/10/30 08:00:59;;;;;;;5.65;2.47;;;31.00;34.70;;;;;;5007061;28;20242;-76
2023/10/30 08:03:30;;;;;;;4.63;2.65;;;31.10;34.70;;;;;;4997179;28;20273;-75
2023/10/30 08:06:02;;;;;;;4.00;2.25;;;31.10;34.60;;;;;;5006185;28;20202;-76
2023/10/30 08:08:37;;;;;;;7.25;2.70;;;31.10;34.90;;;;;;5008484;28;20202;-74
2023/10/30 08:11:12;;;;;;;6.10;2.50;;;31.10;34.70;;;;;;4997399;28;20197;-74
2023/10/30 08:13:45;;;;;;;3.45;2.40;;;31.00;33.80;;;;;;5003570;28;20198;-76
2023/10/30 08:16:16;;;;;;;5.85;2.30;;;31.10;33.70;;;;;;4991072;28;20253;-75
2023/10/30 08:18:47;;;;;;;9.43;2.50;;;31.10;34.10;;;;;;5029002;28;20255;-75
2023/10/30 08:21:18;;;;;;;4.43;2.70;;;31.10;33.70;;;;;;4995706;28;20236;-74
2023/10/30 08:23:49;;;;;;;7.22;3.10;;;31.00;34.60;;;;;;5025175;28;20197;-76
2023/10/30 08:26:20;;;;;;;10.05;3.40;;;30.90;33.90;;;;;;5015136;28;20209;-76
2023/10/30 08:28:53;;;;;;;5.28;2.70;;;30.90;33.20;;;;;;5022567;28;20194;-76
2023/10/30 08:31:24;;;;;;;8.55;2.40;;;30.90;33.50;;;;;;5025572;28;20202;-76
2023/10/30 08:34:00;;;;;;;6.20;2.30;;;30.90;33.40;;;;;;5023761;28;20689;-75
2023/10/30 08:36:31;;;;;;;6.43;2.33;;;30.80;33.90;;;;;;5019936;28;20749;-75
2023/10/30 08:39:03;;;;;;;6.60;2.88;;;30.70;33.70;;;;;;5012275;28;20257;-75
2023/10/30 08:41:36;;;;;;;5.10;2.33;;;30.60;33.40;;;;;;5022659;28;20229;-74
2023/10/30 08:44:10;;;;;;;4.30;2.70;;;30.60;34.10;;;;;;5020747;28;20204;-75
2023/10/30 08:46:41;;;;;;;9.13;3.45;;;30.50;33.50;;;;;;5028992;28;20208;-74
2023/10/30 08:49:12;;;;;;;5.97;2.65;;;30.50;33.70;;;;;;5036555;28;20522;-72
2023/10/30 08:51:47;;;;;;;6.53;2.33;;;30.40;33.80;;;;;;5034326;28;20264;-75
2023/10/30 08:54:19;;;;;;;5.07;2.60;;;30.40;33.70;;;;;;5028842;28;20765;-74
2023/10/30 08:56:50;;;;;;;6.53;2.65;;;30.40;33.20;;;;;;5028857;28;20197;-76
2023/10/30 08:59:24;;;;;;;11.45;4.15;;;30.30;33.60;;;;;;5025235;28;20210;-76
2023/10/30 09:01:56;;;;;;;6.53;2.63;;;30.30;33.80;;;;;;5015408;28;20200;-77
2023/10/30 09:04:27;;;;;;;8.32;2.72;;;30.20;34.20;;;;;;5019862;28;20463;-77
2023/10/30 09:06:58;;;;;;;4.80;2.80;;;30.10;34.30;;;;;;5015130;28;20581;-77
2023/10/30 09:09:29;;;;;;;7.30;2.65;;;30.10;34.00;;;;;;5024623;28;20212;-76
2023/10/30 09:12:00;;;;;;;9.90;2.70;;;30.00;34.20;;;;;;5012502;28;20197;-77
2023/10/30 09:14:32;;;;;;;4.68;2.90;;;30.00;34.20;;;;;;5024593;28;20220;-76
2023/10/30 09:17:03;;;;;;;3.95;2.45;;;29.90;33.90;;;;;;5030053;28;20204;-76
2023/10/30 09:19:34;;;;;;;8.57;3.83;;;29.90;34.00;;;;;;5029390;28;20555;-78
2023/10/30 09:22:05;;;;;;;5.78;2.78;;;29.90;34.20;;;;;;5030245;28;20227;-77
2023/10/30 09:24:35;;;;;;;5.53;2.50;;;29.80;34.30;;;;;;5022000;28;20197;-78
2023/10/30 09:27:07;;;;;;;8.90;3.05;;;29.80;34.40;;;;;;4998907;28;20194;-78
2023/10/30 09:29:45;;;;;;;6.07;2.70;;;29.70;34.80;;;;;;5008821;28;20233;-78
2023/10/30 09:32:16;;;;;;;5.43;2.65;;;29.50;35.40;;;;;;5006873;28;20202;-77
2023/10/30 09:34:46;;;;;;;5.10;2.83;;;29.30;36.70;;;;;;5024566;28;20198;-77
2023/10/30 09:37:17;;;;;;;4.22;2.55;;;29.20;37.80;;;;;;5017151;28;20289;-79
2023/10/30 09:39:48;;;;;;;6.82;2.63;;;29.00;38.60;;;;;;5001186;28;20218;-77
2023/10/30 09:42:18;;;;;;;4.90;2.58;;;28.90;39.40;;;;;;4994377;28;20202;-78
2023/10/30 09:44:52;;;;;;;4.65;2.65;;;28.70;38.50;;;;;;5004682;28;20197;-78
2023/10/30 09:47:25;;;;;;;4.55;2.58;;;28.60;39.20;;;;;;5005866;28;20578;-78
2023/10/30 09:49:56;;;;;;;3.90;2.85;;;28.50;39.70;;;;;;5042400;28;20197;-75
2023/10/30 09:52:30;;;;;;;5.18;3.30;;;28.40;40.10;;;;;;5035658;28;20219;-77
2023/10/30 09:55:04;;;;;;;5.40;2.75;;;28.30;40.40;;;;;;5015576;28;20233;-77
2023/10/30 09:57:35;;;;;;;7.47;3.00;;;28.20;40.60;;;;;;5014505;28;20198;-77
2023/10/30 10:00:09;;;;;;;6.30;2.55;;;28.10;40.50;;;;;;5014051;28;20226;-77
2023/10/30 10:02:40;;;;;;;6.68;2.45;;;28.10;40.40;;;;;;5008695;28;20195;-79
2023/10/30 10:05:12;;;;;;;5.13;2.20;;;28.00;40.40;;;;;;5004053;28;20523;-78
2023/10/30 10:07:43;;;;;;;4.20;2.28;;;27.90;40.50;;;;;;5009334;28;20675;-78
2023/10/30 10:10:18;;;;;;;7.40;2.90;;;27.90;40.10;;;;;;5010960;28;20217;-77
2023/10/30 10:12:52;;;;;;;5.78;2.88;;;27.80;40.50;;;;;;5012699;28;20225;-78
2023/10/30 10:15:26;;;;;;;6.38;2.90;;;27.80;40.60;;;;;;5006215;28;20198;-77
2023/10/30 10:17:56;;;;;;;6.40;3.60;;;27.70;40.90;;;;;;5005729;28;20194;-77
2023/10/30 10:20:32;;;;;;;4.18;3.25;;;27.70;40.40;;;;;;5023968;28;20260;-78
2023/10/30 10:23:02;;;;;;;11.63;4.85;;;27.70;38.80;;;;;;5015200;28;20229;-77
2023/10/30 10:25:33;;;;;;;6.00;3.80;;;27.80;37.70;;;;;;5011198;28;20201;-77
2023/10/30 10:28:04;;;;;;;6.80;3.78;;;27.90;37.10;;;;;;5015538;28;20649;-78
2023/10/30 10:30:43;;;;;;;4.32;3.78;;;28.10;36.80;;;;;;5015198;28;20205;-77
2023/10/30 10:33:14;;;;;;;5.70;3.65;;;28.10;36.70;;;;;;5011497;28;20202;-77
2023/10/30 10:35:45;;;;;;;6.20;2.95;;;28.20;36.50;;;;;;5007205;28;20305;-78
2023/10/30 10:38:17;;;;;;;6.50;2.80;;;28.20;36.40;;;;;;5015379;28;20208;-79
2023/10/30 10:40:48;;;;;;;5.68;2.80;;;28.20;36.20;;;;;;5020066;28;20308;-78
2023/10/30 10:43:20;;;;;;;3.17;2.40;;;28.20;37.00;;;;;;5014368;28;20199;-78
2023/10/30 10:45:54;;;;;;;6.82;2.70;;;28.20;36.40;;;;;;5006392;28;20207;-78
2023/10/30 10:48:28;;;;;;;3.83;2.60;;;28.20;36.50;;;;;;5001950;28;20214;-79
2023/10/30 10:51:03;;;;;;;5.22;2.30;;;28.20;36.70;;;;;;5030862;28;20205;-78
2023/10/30 10:53:38;;;;;;;4.70;2.58;;;28.10;37.00;;;;;;5015392;28;20280;-78
2023/10/30 10:56:10;;;;;;;4.68;2.60;;;28.10;37.30;;;;;;4999312;28;20194;-80
2023/10/30 10:58:46;;;;;;;4.47;2.22;;;27.90;37.60;;;;;;5012050;28;20656;-79
2023/10/30 11:01:20;;;;;;;3.83;2.40;;;27.90;38.30;;;;;;5007741;28;20257;-79
2023/10/30 11:03:51;;;;;;;3.13;2.30;;;27.70;38.70;;;;;;5012045;28;20304;-79
2023/10/30 11:06:27;;;;;;;2.95;2.38;;;27.70;39.20;;;;;;5020197;28;20199;-78
2023/10/30 11:09:05;;;;;;;4.15;2.53;;;27.60;39.50;;;;;;5033560;28;20292;-80
2023/10/30 11:11:40;;;;;;;3.20;2.50;;;27.50;40.30;;;;;;5014481;28;20260;-79
2023/10/30 11:14:22;;;;;;;5.75;2.65;;;27.40;41.00;;;;;;5029580;28;20283;-79
2023/10/30 11:17:01;;;;;;;3.33;2.25;;;27.30;41.10;;;;;;5030414;28;20190;-80
2023/10/30 11:19:33;;;;;;;5.22;2.40;;;27.20;41.70;;;;;;5021747;28;20606;-80
2023/10/30 11:22:03;;;;;;;5.72;2.47;;;27.10;42.40;;;;;;5023160;28;20236;-79
2023/10/30 11:24:41;;;;;;;4.00;2.35;;;27.10;42.60;;;;;;5036614;28;20216;-79
2023/10/30 11:27:38;;;;;;;2.97;2.45;;;27.00;43.40;;;;;;5031765;28;20564;-78
2023/10/30 11:30:12;;;;;;;2.75;2.35;;;26.90;44.20;;;;;;5031535;28;20274;-79
2023/10/30 11:32:56;;;;;;;3.13;2.22;;;26.80;44.50;;;;;;5029097;28;20269;-78
2023/10/30 11:35:30;;;;;;;4.55;2.33;;;26.80;45.50;;;;;;5032679;28;20193;-77
2023/10/30 11:38:04;;;;;;;5.60;2.78;;;26.70;46.60;;;;;;5033841;28;20212;-79
2023/10/30 11:40:35;;;;;;;5.20;2.50;;;26.60;45.90;;;;;;5038969;28;20267;-78
2023/10/30 11:43:12;;;;;;;3.50;2.50;;;26.50;47.40;;;;;;5022324;28;20277;-78
2023/10/30 11:45:43;;;;;;;2.42;2.20;;;26.40;49.60;;;;;;5017233;28;20206;-78
2023/10/30 11:48:16;;;;;;;4.60;2.60;;;26.30;49.00;;;;;;5040923;28;20235;-77
2023/10/30 11:50:48;;;;;;;3.83;2.40;;;26.20;48.90;;;;;;5036526;28;20224;-78
2023/10/30 11:53:21;;;;;;;3.63;2.60;;;26.20;49.30;;;;;;5036405;28;20245;-77
2023/10/30 11:55:53;;;;;;;3.13;2.30;;;26.10;48.60;;;;;;5035770;28;20682;-79
2023/10/30 11:58:25;;;;;;;3.20;2.65;;;26.10;49.50;;;;;;5035940;28;20202;-77
2023/10/30 12:00:57;;;;;;;5.25;2.55;;;26.00;50.80;;;;;;5021431;28;20699;-77
2023/10/30 12:03:30;;;;;;;6.50;2.88;;;26.00;52.00;;;;;;5021865;28;20190;-78
2023/10/30 12:06:00;;;;;;;3.33;2.58;;;25.90;50.50;;;;;;5031109;28;20212;-78
2023/10/30 12:08:34;;;;;;;4.45;2.65;;;25.90;49.00;;;;;;5033083;28;20232;-78
2023/10/30 12:11:05;;;;;;;3.17;2.63;;;25.90;51.00;;;;;;5028254;28;20890;-78
2023/10/30 12:13:37;;;;;;;3.90;2.60;;;25.80;49.60;;;;;;5033254;28;20196;-79
2023/10/30 12:16:08;;;;;;;4.15;2.70;;;25.80;50.30;;;;;;5030337;28;20651;-78
2023/10/30 12:18:41;;;;;;;2.95;2.40;;;25.70;51.00;;;;;;5028859;28;20229;-77
2023/10/30 12:21:12;;;;;;;3.20;2.50;;;25.60;52.10;;;;;;5017415;28;20225;-78
2023/10/30 12:23:51;;;;;;;3.65;2.95;;;25.50;51.80;;;;;;5012012;28;20576;-78
2023/10/30 12:26:21;;;;;;;4.53;2.60;;;25.50;51.00;;;;;;5029627;28;20197;-79
2023/10/30 12:28:52;;;;;;;4.07;2.60;;;25.40;52.60;;;;;;5038802;28;20187;-79
2023/10/30 12:31:26;;;;;;;5.88;3.03;;;25.30;52.70;;;;;;5033124;28;20695;-80
2023/10/30 12:34:16;;;;;;;3.50;2.70;;;25.20;53.70;;;;;;5029802;28;20259;-78
2023/10/30 12:36:46;;;;;;;4.55;2.97;;;25.20;54.40;;;;;;5032220;28;20360;-78
2023/10/30 12:39:19;;;;;;;5.43;2.83;;;25.10;56.30;;;;;;5011768;28;20208;-77
2023/10/30 12:41:55;;;;;;;8.68;3.28;;;25.10;56.40;;;;;;5011829;28;20270;-77
2023/10/30 12:44:27;;;;;;;6.10;3.35;;;25.00;58.10;;;;;;5012420;28;20200;-77
2023/10/30 12:46:58;;;;;;;6.28;3.65;;;24.90;59.50;;;;;;5014442;28;20564;-77
2023/10/30 12:49:31;;;;;;;8.10;3.85;;;24.90;61.20;;;;;;5039007;28;20201;-76
2023/10/30 12:52:02;;;;;;;10.82;4.03;;;24.90;63.70;;;;;;5030549;28;20664;-77
2023/10/30 12:54:32;;;;;;;9.23;3.80;;;24.80;65.30;;;;;;5029559;28;20622;-77
2023/10/30 12:57:03;;;;;;;8.95;4.13;;;24.80;66.30;;;;;;5011354;28;20202;-77
2023/10/30 12:59:34;;;;;;;10.65;3.50;;;24.70;66.10;;;;;;5010960;28;20229;-77
2023/10/30 13:02:05;;;;;;;7.20;3.47;;;24.70;67.70;;;;;;5011347;28;20224;-77
2023/10/30 13:04:38;;;;;;;4.63;3.47;;;24.70;67.20;;;;;;5026786;28;20197;-76
2023/10/30 13:07:09;;;;;;;8.27;3.80;;;24.60;68.10;;;;;;5023067;28;20194;-77
2023/10/30 13:09:40;;;;;;;8.27;3.80;;;24.60;68.90;;;;;;5026624;28;20201;-76
2023/10/30 13:12:11;;;;;;;6.35;3.65;;;24.50;70.10;;;;;;5031806;28;20197;-77
2023/10/30 13:14:41;;;;;;;9.07;3.38;;;24.60;70.50;;;;;;5023484;28;20195;-76
2023/10/30 13:17:12;;;;;;;7.65;3.70;;;24.50;69.60;;;;;;5024243;28;20202;-76
2023/10/30 13:19:45;;;;;;;6.85;3.53;;;24.50;71.90;;;;;;5025496;28;20189;-76
2023/10/30 13:22:16;;;;;;;8.32;3.33;;;24.40;71.10;;;;;;5037482;28;20239;-76
2023/10/30 13:24:48;;;;;;;7.65;3.63;;;24.40;71.60;;;;;;5018707;28;20363;-76
2023/10/30 13:27:19;;;;;;;8.68;3.90;;;24.30;72.00;;;;;;5014321;28;20205;-76
2023/10/30 13:29:50;;;;;;;6.63;3.28;;;24.30;69.60;;;;;;5026653;28;20648;-76
2023/10/30 13:32:21;;;;;;;7.25;3.30;;;24.30;67.90;;;;;;5028044;28;20228;-76
2023/10/30 13:34:56;;;;;;;6.53;2.63;;;24.30;59.20;;;;;;5043151;28;20203;-76
2023/10/30 13:37:27;;;;;;;4.45;2.30;;;24.40;55.70;;;;;;5032558;28;20284;-77
2023/10/30 13:39:57;;;;;;;3.85;2.60;;;24.50;52.20;;;;;;5034006;28;20193;-76
2023/10/30 13:42:28;;;;;;;5.22;2.65;;;24.50;51.60;;;;;;5032049;28;20225;-76
2023/10/30 13:44:59;;;;;;;4.00;2.35;;;24.60;51.60;;;;;;5032813;28;20246;-76
2023/10/30 13:47:30;;;;;;;5.05;2.75;;;24.70;55.90;;;;;;5042355;28;20740;-77
2023/10/30 13:50:03;;;;;;;6.63;3.00;;;24.70;58.30;;;;;;5045477;28;20624;-77
2023/10/30 13:52:35;;;;;;;8.25;3.17;;;24.60;58.00;;;;;;5033424;28;20204;-76
2023/10/30 13:55:06;;;;;;;5.00;2.78;;;24.50;59.10;;;;;;5033481;28;20201;-77
2023/10/30 13:57:37;;;;;;;4.28;2.70;;;24.40;58.30;;;;;;5032938;28;20597;-77
2023/10/30 14:00:09;;;;;;;5.85;2.88;;;24.30;59.70;;;;;;5024776;28;20592;-76
2023/10/30 14:02:40;;;;;;;5.72;3.30;;;24.30;63.00;;;;;;5028736;28;20221;-76